Smith Valley, Nevada Weather observations

Data are for 10 minute period ending at time listed.
 Day   Time   Solar   Ave.   Ave.  Ave.  Vector  Max.   Baro.   Total    
  of    of     Rad.   Air    Rel.  Wind   Wind   Wind  Press.  Precip.   
Year   Day            Temp.  Hum.  Speed  Dir.   Gust                    
2016   (PST)  Kw/m2    F      %     mph   deg.    mph    mb.     in.     
-------------------------------------------------------------------------
 204   18:50   0.04   83.6    10    5.7   298    13.5   857.0    0.00 
 204   19:00   0.01   83.1    10    5.1   318    13.7   857.0    0.00 
 204   19:10   0.01   82.6    11    5.7   332    14.8   857.0    0.00 
 204   19:20   0.01   80.8    12    6.7   298    12.4   857.1    0.00 
 204   19:30   0.00   79.6    12    4.9   276    15.2   857.1    0.00 
 204   19:40   0.00   78.5    12    5.8   274    10.0   857.1    0.00 
 204   19:50   0.00   79.0    12    5.1   271     9.6   857.2    0.00 
 204   20:00   0.00   77.7    12    3.5   259     9.9   857.3    0.00 
 204   20:10   0.00   78.0    11    4.2   293    11.8   857.4    0.00 
 204   20:20   0.00   79.1    11    3.9   306     8.4   857.5    0.00 
 204   20:30   0.00   79.9    10    3.5   238    12.6   857.6    0.00 
 204   20:40   0.00   80.0    10    5.0   241     9.9   857.8    0.00 
 204   20:50   0.00   79.1    11    5.3   213     8.4   857.9    0.00 
 204   21:00   0.00   78.3    11    5.0   233     8.2   858.0    0.00 
 204   21:10   0.00   76.7    12    3.3   299     6.1   858.0    0.00 
 204   21:20   0.00   73.8    14    4.0    81     8.7   858.1    0.00 
 204   21:30   0.00   70.8    15    4.0   155     8.6   858.1    0.00 
 204   21:40   0.00   72.4    14    3.1   102     5.1   858.0    0.00 
 204   21:50   0.00   70.6    15    2.7   173     5.3   858.0    0.00 
 204   22:00   0.00   67.6    19    2.9   158     6.0   858.1    0.00 
 204   22:10   0.00   65.8    20    2.5   161     4.2   858.0    0.00 
 204   22:20   0.00   66.4    19    2.0   193     3.3   858.1    0.00 
 204   22:30   0.00   65.5    20    2.7   130     6.3   857.9    0.00 
 204   22:40   0.00   62.5    22    3.5   127     5.1   857.8    0.00 
 204   22:50   0.00   62.3    21    2.8   135     4.2   857.8    0.00 
 204   23:00   0.00   61.2    21    2.3   153     4.2   857.9    0.00 
 204   23:10   0.00   59.7    22    2.4   192     4.7   857.9    0.00 
 204   23:20   0.00   56.4    33    4.4   220     8.1   858.0    0.00 
 204   23:30   0.00   55.8    38    5.1   206     7.2   858.0    0.00 
 204   23:40   0.00   58.0    31    4.4   189     5.8   858.1    0.00 
 204   23:50   0.00   56.2    35    3.7   197     4.9   858.1    0.00 
 205    0:00   0.00   55.7    36    3.3   185     4.2   858.1    0.00 
 205    0:10   0.00   59.6    29    3.0   188     4.0   858.1    0.00 
 205    0:20   0.00   56.8    35    3.4   200     3.9   858.1    0.00 
 205    0:30   0.00   53.0    42    2.9   208     4.0   858.0    0.00 
 205    0:40   0.00   54.3    40    3.8   216     5.4   858.0    0.00 
 205    0:50   0.00   54.4    35    3.5   206     4.5   858.0    0.00 
 205    1:00   0.00   52.7    37    2.2   107     4.8   858.0    0.00 
 205    1:10   0.00   51.6    35    1.1   339     2.1   858.0    0.00 
 205    1:20   0.00   51.6    36    2.6   336     4.5   858.1    0.00 
 205    1:30   0.00   51.1    38    1.8     5     4.1   858.2    0.00 
 205    1:40   0.00   50.4    49    2.3   254     3.3   858.2    0.00 
 205    1:50   0.00   49.1    49    2.1   212     3.9   858.2    0.00 
 205    2:00   0.00   49.1    45    2.7   196     3.7   858.1    0.00 
 205    2:10   0.00   49.2    42    3.1   143     4.1   858.1    0.00 
 205    2:20   0.00   49.4    41    1.5    92     2.9   858.1    0.00 
 205    2:30   0.00   47.9    49    1.5    44     2.8   858.1    0.00 
 205    2:40   0.00   48.3    51    2.2    34     3.8   858.1    0.00 
 205    2:50   0.00   48.7    48    0.4   296     1.9   858.2    0.00 
 205    3:00   0.00   47.3    50    1.4   260     2.7   858.1    0.00 
 205    3:10   0.00   45.8    53    1.9   226     2.6   858.1    0.00 
 205    3:20   0.00   45.3    57    2.4   179     3.3   858.1    0.00 
 205    3:30   0.00   45.8    55    1.9   183     3.1   858.0    0.00 
 205    3:40   0.00   45.6    62    3.4   183     4.5   858.0    0.00 
 205    3:50   0.00   44.8    61    2.5   181     3.7   858.0    0.00 
 205    4:00   0.00   46.4    55    2.1   217     3.7   858.1    0.00 
 205    4:10   0.00   45.9    59    1.1   110     3.4   858.2    0.00 
 205    4:20   0.00   44.0    57    2.7   108     3.5   858.4    0.00 
 205    4:30   0.00   44.3    54    2.9   126     3.9   858.4    0.00 
 205    4:40   0.00   44.3    46    1.4   168     2.6   858.5    0.00 
 205    4:50   0.00   43.1    46    0.3   198     1.4   858.5    0.00 
 205    5:00   0.01   42.5    52    1.0   264     1.7   858.6    0.00 
 205    5:10   0.02   42.0    53    0.2   191     1.5   858.6    0.00 
 205    5:20   0.05   42.6    55    2.4    79     3.7   858.6    0.00 
 205    5:30   0.07   45.2    52    2.1    76     4.0   858.6    0.00 
 205    5:40   0.09   48.5    45    1.8    88     3.6   858.7    0.00 
 205    5:50   0.12   51.3    39    1.7   142     3.3   858.7    0.00 
 205    6:00   0.14   52.6    43    3.2   252     4.5   858.8    0.00 
 205    6:10   0.17   54.2    34    1.5   275     2.8   858.8    0.00 
 205    6:20   0.20   57.6    28    0.6    53     1.8   858.7    0.00 
 205    6:30   0.23   58.2    26    1.8   334     3.3   858.6    0.00 
 205    6:40   0.26   58.8    25    1.9   345     3.1   858.5    0.00 
 205    6:50   0.30   61.1    21    1.4    43     2.6   858.4    0.00 
 205    7:00   0.33   63.5    19    1.1    72     3.4   858.4    0.00 
 205    7:10   0.36   65.2    18    1.1    65     2.9   858.4    0.00 
 205    7:20   0.39   66.9    17    1.7    60     4.0   858.5    0.00 
 205    7:30   0.42   68.0    16    1.5    85     3.1   858.5    0.00 
 205    7:40   0.46   69.6    15    1.5    23     2.9   858.6    0.00 
 205    7:50   0.49   69.7    16    2.4   320     5.6   858.6    0.00 
 205    8:00   0.52   69.4    22    3.5   296     5.2   858.7    0.00 
 205    8:10   0.55   71.1    21    3.9   284     5.7   858.6    0.00 
 205    8:20   0.58   72.0    17    4.2   300     7.0   858.6    0.00 
 205    8:30   0.60   73.0    15    3.8   311     5.9   858.7    0.00 
 205    8:40   0.63   74.6    17    4.5   287     7.6   858.7    0.00 
 205    8:50   0.66   75.4    16    3.6   281     6.3   858.6    0.00 
 205    9:00   0.68   77.0    14    2.8   279     5.5   858.6    0.00 
 205    9:10   0.68   77.3    13    2.7   329     5.5   858.5    0.00 
 205    9:20   0.74   78.5    13    3.5   294     7.2   858.5    0.00 
 205    9:30   0.76   79.2    12    4.1   299     7.0   858.5    0.00 
 205    9:40   0.78   79.6    11    3.3   310     7.6   858.4    0.00 
 205    9:50   0.80   80.2    12    5.2   301    10.9   858.3    0.00 
 205   10:00   0.82   81.0    11    3.7   337     6.8   858.2    0.00 
 205   10:10   0.84   81.2    10    4.1     6     8.2   858.2    0.00 
 205   10:20   0.85   81.4    10    2.4   150     5.5   858.1    0.00 
 205   10:30   0.84   82.6    10    3.3    76     7.0   857.9    0.00 
 205   10:40   0.89   82.5    10    5.1     5     9.7   857.9    0.00 
 205   10:50   0.90   83.0     9    2.7    35     6.4   857.7    0.00 
 205   11:00   0.91   83.8     9    5.3   341     9.6   857.5    0.00 
 205   11:10   0.93   84.2     9    3.3   294     6.0   857.3    0.00 
 205   11:20   0.93   85.9    10    3.2   272     6.9   857.2    0.00 
 205   11:30   0.94   86.1    10    3.3   290     7.6   857.1    0.00 
 205   11:40   0.95   87.0    10    3.9   272     7.1   857.0    0.00 
 205   11:50   0.95   87.0     9    3.0   346     6.8   856.9    0.00 
 205   12:00   0.94   87.1     9    4.7    31     8.5   856.9    0.00 
 205   12:10   0.95   87.1     8    6.3   354    11.5   856.8    0.00 
 205   12:20   0.95   87.8     9    6.9   328    12.2   856.6    0.00 
 205   12:30   0.95   88.3     8    4.5   314     9.3   856.5    0.00 
 205   12:40   0.94   88.9     8    2.0    51     5.0   856.4    0.00 
 205   12:50   0.92   89.3     8    3.2   325     7.1   856.2    0.00 
 205   13:00   0.93   89.1     8    6.8   347    13.4   856.1    0.00 
 205   13:10   0.93   89.0     8    6.2   334    12.9   855.9    0.00 
 205   13:20   0.91   90.2     8    3.3    20    10.3   855.8    0.00 
 205   13:30   0.89   89.5     8    6.0    18    11.1   855.7    0.00 
 205   13:40   0.89   90.0     8    6.1   358    12.6   855.5    0.00 
 205   13:50   0.88   90.9     8    7.8    36    12.9   855.3    0.00 
 205   14:00   0.86   90.8     8    6.2    16    13.1   855.2    0.00 
 205   14:10   0.84   91.1     8    6.0     9    11.4   855.1    0.00 
 205   14:20   0.82   91.2     8    5.7    27    11.5   855.0    0.00 
 205   14:30   0.81   91.5     8    6.8    14    12.3   854.8    0.00 
 205   14:40   0.79   91.9     8    8.2    29    15.2   854.7    0.00 
 205   14:50   0.76   92.4     8    7.9     4    15.5   854.5    0.00 
 205   15:00   0.74   92.2     8    8.6    33    17.9   854.5    0.00 
 205   15:10   0.71   92.9     8    8.4    18    14.5   854.4    0.00 
 205   15:20   0.69   92.6     8    7.2    18    13.7   854.4    0.00 
 205   15:30   0.67   92.2     8    6.9    20    12.7   854.2    0.00 
 205   15:40   0.64   92.5     8    7.0     5    14.7   854.2    0.00 
 205   15:50   0.61   92.7     7    8.6    23    17.4   854.2    0.00 
 205   16:00   0.58   92.6     7    7.9    50    13.7   854.1    0.00 
 205   16:10   0.55   92.8     7    9.3    35    16.8   854.0    0.00 
 205   16:20   0.52   92.8     7    8.3    25    15.0   853.9    0.00 
 205   16:30   0.49   92.6     7    9.2    26    14.8   853.9    0.00 
 205   16:40   0.46   92.4     7    8.2    29    13.4   853.9    0.00 
 205   16:50   0.43   92.3     7    8.3    29    14.2   853.8    0.00 
 205   17:00   0.40   92.0     7    8.1    33    12.2   853.7    0.00 
 205   17:10   0.37   91.5     7    8.7    45    13.1   853.7    0.00 
 205   17:20   0.34   91.6     7    7.1    37    10.8   853.6    0.00 
 205   17:30   0.30   91.5     7    6.6    32    12.1   853.7    0.00 
 205   17:40   0.27   91.1     7    8.0    30    13.9   853.7    0.00 
 205   17:50   0.24   90.7     7    7.3    33    12.8   853.7    0.00 
 205   18:00   0.21   90.6     7    6.9    14    10.2   853.7    0.00 
 205   18:10   0.18   90.2     8    6.8     1    11.8   853.7    0.00 
 205   18:20   0.15   89.5     8    6.5    23    12.3   853.8    0.00 
 205   18:30   0.13   88.9     8    5.8    23     9.3   853.9    0.00 
 205   18:40   0.10   88.3     8    4.9     6     7.9   854.0    0.00 

Return to Smith Valley graphs page.


Western Regional Climate Center,wrcc@dri.edu